.
WxDataArchive / Data Records for 2010-10-28
2010-10-27 October 2010 2010-10-29

Data Records for Thursday, 28 October 2010

Time	Temp	Chill	HIndex	Humid	Dewpt	 Wind 	HiWind	WindDir	Rain 	Barom 
-----	----	-----	------	-----	-----	------	------	-------	-----	----- 
00:00	56.5	56.5	56.5	35	29.2	3	9	248	0.00	29.765 
00:05	56.3	56.3	56.3	35	29.0	4	9	248	0.00	29.765 
00:10	56.2	56.2	56.2	36	29.6	3	8	248	0.00	29.765 
00:15	55.9	55.9	55.9	36	29.3	4	10	248	0.00	29.769 
00:20	55.7	55.7	55.7	37	29.8	5	11	270	0.00	29.769 
00:25	55.6	55.6	55.6	38	30.4	5	10	248	0.00	29.769 
00:30	55.3	55.3	55.3	39	30.8	5	12	270	0.00	29.780 
00:35	55.0	55.0	55.0	40	31.1	6	16	270	0.00	29.780 
00:40	54.7	54.7	54.7	41	31.5	4	10	270	0.00	29.780 
00:45	54.4	54.4	54.4	41	31.2	4	11	270	0.00	29.780 
00:50	54.2	54.2	54.2	41	31.0	5	16	248	0.00	29.780 
00:55	54.1	54.1	54.1	41	30.9	4	9	248	0.00	29.780 
01:00	53.8	53.8	53.8	41	30.7	4	11	270	0.00	29.782 
01:05	53.6	53.6	53.6	41	30.5	3	6	248	0.00	29.782 
01:10	53.5	53.5	53.5	42	31.0	5	11	270	0.00	29.782 
01:15	53.3	53.3	53.3	42	30.8	4	9	248	0.00	29.784 
01:20	53.1	53.1	53.1	43	31.2	3	6	248	0.00	29.784 
01:25	52.8	52.8	52.8	43	30.9	5	14	270	0.00	29.784 
01:30	52.6	52.6	52.6	44	31.3	4	9	270	0.00	29.791 
01:35	52.3	52.3	52.3	45	31.6	3	5	248	0.00	29.791 
01:40	52.0	52.0	52.0	46	31.9	4	11	270	0.00	29.791 
01:45	51.9	51.9	51.9	46	31.8	3	9	225	0.00	29.793 
01:50	51.7	51.7	51.7	46	31.6	3	7	248	0.00	29.793 
01:55	51.4	51.4	51.4	46	31.3	3	8	248	0.00	29.793 
02:00	51.3	51.3	51.3	46	31.2	4	10	248	0.00	29.800 
02:05	51.1	51.1	51.1	47	31.6	2	5	270	0.00	29.800 
02:10	50.8	50.8	50.8	48	31.8	2	5	248	0.00	29.800 
02:15	50.5	50.5	50.5	48	31.5	2	5	248	0.00	29.804 
02:20	50.4	50.4	50.4	48	31.5	4	7	270	0.00	29.804 
02:25	50.1	50.1	50.1	48	31.2	4	10	248	0.00	29.804 
02:30	49.8	48.6	49.8	49	31.4	4	11	270	0.00	29.805 
02:35	49.5	48.3	49.5	50	31.6	4	7	270	0.00	29.805 
02:40	49.2	47.3	49.2	50	31.4	5	11	270	0.00	29.805 
02:45	49.1	47.8	49.1	49	30.8	4	7	270	0.00	29.812 
02:50	48.6	47.3	48.6	49	30.3	4	13	270	0.00	29.812 
02:55	48.3	46.2	48.3	48	29.5	5	9	270	0.00	29.812 
03:00	48.0	45.9	48.0	48	29.3	5	11	270	0.00	29.822 
03:05	47.7	45.5	47.7	49	29.5	5	12	270	0.00	29.822 
03:10	47.7	44.9	47.7	49	29.5	6	13	270	0.00	29.822 
03:15	47.4	45.9	47.4	49	29.2	4	7	270	0.00	29.826 
03:20	47.3	47.3	47.3	50	29.6	3	9	270	0.00	29.826 
03:25	46.8	45.2	46.8	50	29.2	4	7	270	0.00	29.826 
03:30	46.5	44.8	46.5	51	29.4	4	9	270	0.00	29.837 
03:35	46.2	44.5	46.2	51	29.1	4	12	270	0.00	29.837 
03:40	46.1	46.1	46.1	51	29.0	3	13	248	0.00	29.837 
03:45	46.1	43.6	46.1	51	29.0	5	11	270	0.00	29.841 
03:50	46.0	44.2	46.0	51	28.9	4	11	270	0.00	29.841 
03:55	45.7	42.5	45.7	51	28.6	6	13	270	0.00	29.841 
04:00	45.5	43.7	45.5	48	27.0	4	10	248	0.00	29.851 
04:05	45.2	45.2	45.2	53	29.1	3	7	248	0.00	29.851 
04:10	44.9	43.0	44.9	53	28.8	4	11	270	0.00	29.851 
04:15	44.8	44.8	44.8	54	29.2	3	6	270	0.00	29.860 
04:20	44.6	41.9	44.6	55	29.4	5	10	270	0.00	29.860 
04:25	44.3	42.3	44.3	55	29.2	4	15	270	0.00	29.860 
04:30	44.2	42.2	44.2	56	29.5	4	8	248	0.00	29.870 
04:35	44.1	42.1	44.1	57	29.9	4	7	270	0.00	29.870 
04:40	43.9	43.9	43.9	57	29.7	2	4	270	0.00	29.870 
04:45	43.8	43.8	43.8	58	30.0	2	4	270	0.00	29.874 
04:50	43.8	43.8	43.8	59	30.4	2	5	270	0.00	29.874 
04:55	43.6	43.6	43.6	59	30.2	3	7	270	0.00	29.874 
05:00	43.6	41.5	43.6	60	30.6	4	8	292	0.00	29.877 
05:05	43.5	43.5	43.5	61	31.0	2	6	248	0.00	29.877 
05:10	43.5	43.5	43.5	61	31.0	3	7	270	0.00	29.877 
05:15	43.5	41.4	43.5	61	31.0	4	7	270	0.00	29.883 
05:20	43.3	41.1	43.3	61	30.8	4	9	270	0.00	29.883 
05:25	43.3	41.1	43.3	61	30.8	4	10	248	0.00	29.883 
05:30	43.3	43.3	43.3	62	31.2	2	9	248	0.00	29.889 
05:35	43.3	43.3	43.3	62	31.2	3	6	248	0.00	29.889 
05:40	43.3	41.1	43.3	62	31.2	4	11	248	0.00	29.889 
05:45	43.2	43.2	43.2	62	31.1	3	11	270	0.00	29.892 
05:50	43.2	43.2	43.2	62	31.1	3	11	270	0.00	29.892 
05:55	43.2	43.2	43.2	62	31.1	3	6	248	0.00	29.892 
06:00	43.2	43.2	43.2	62	31.1	3	12	248	0.00	29.903 
06:05	43.2	41.0	43.2	62	31.1	4	7	270	0.00	29.903 
06:10	43.2	41.0	43.2	60	30.3	4	8	270	0.00	29.903 
06:15	43.2	41.0	43.2	59	29.9	4	7	270	0.00	29.917 
06:20	43.2	41.0	43.2	59	29.9	4	7	270	0.00	29.917 
06:25	43.2	43.2	43.2	60	30.3	2	5	270	0.00	29.917 
06:30	43.2	41.0	43.2	59	29.9	4	7	270	0.00	29.923 
06:35	43.3	43.3	43.3	59	29.9	3	5	248	0.00	29.923 
06:40	43.3	41.1	43.3	59	29.9	4	9	270	0.00	29.923 
06:45	43.3	41.1	43.3	59	29.9	4	8	270	0.00	29.924 
06:50	43.3	41.1	43.3	59	29.9	4	7	270	0.00	29.924 
06:55	43.3	41.1	43.3	59	29.9	4	7	270	0.00	29.924 
07:00	43.3	43.3	43.3	59	29.9	3	10	270	0.00	29.931 
07:05	43.3	41.1	43.3	59	29.9	4	7	270	0.00	29.931 
07:10	43.3	43.3	43.3	59	29.9	3	9	270	0.00	29.931 
07:15	43.3	41.1	43.3	59	29.9	4	9	270	0.00	29.937 
07:20	43.3	43.3	43.3	59	29.9	2	5	248	0.00	29.937 
07:25	43.3	41.1	43.3	59	29.9	4	9	248	0.00	29.937 
07:30	43.3	43.3	43.3	59	29.9	3	6	270	0.00	29.940 
07:35	43.3	41.1	43.3	59	29.9	4	10	270	0.00	29.940 
07:40	43.3	43.3	43.3	60	30.4	3	7	248	0.00	29.940 
07:45	43.2	43.2	43.2	60	30.3	2	9	248	0.00	29.942 
07:50	43.2	43.2	43.2	61	30.7	3	6	248	0.00	29.942 
07:55	43.1	43.1	43.1	62	31.0	3	7	248	0.00	29.942 
08:00	43.1	40.9	43.1	62	31.0	4	6	270	0.00	29.951 
08:05	43.1	43.1	43.1	62	31.0	3	9	248	0.00	29.951 
08:10	42.9	42.9	42.9	62	30.8	3	6	270	0.00	29.951 
08:15	42.9	42.9	42.9	62	30.8	3	10	248	0.00	29.955 
08:20	42.9	42.9	42.9	62	30.8	3	7	248	0.00	29.955 
08:25	42.9	42.9	42.9	62	30.8	3	6	225	0.00	29.955 
08:30	43.1	43.1	43.1	62	31.0	3	7	248	0.00	29.959 
08:35	43.1	43.1	43.1	62	31.0	3	6	270	0.00	29.959 
08:40	43.1	43.1	43.1	62	31.0	2	7	248	0.00	29.959 
08:45	43.1	43.1	43.1	62	31.0	3	8	270	0.00	29.971 
08:50	43.1	40.9	43.1	62	31.0	4	10	248	0.00	29.971 
08:55	43.1	40.9	43.1	63	31.4	4	12	270	0.00	29.971 
09:00	43.1	40.9	43.1	63	31.4	4	9	270	0.00	29.978 
09:05	43.2	41.0	43.2	63	31.5	4	11	248	0.00	29.978 
09:10	43.2	43.2	43.2	63	31.5	3	5	248	0.00	29.978 
09:15	43.2	40.2	43.2	63	31.5	5	11	248	0.00	29.990 
09:20	43.3	43.3	43.3	63	31.6	3	9	248	0.00	29.990 
09:25	43.3	43.3	43.3	63	31.6	3	7	270	0.00	29.990 
09:30	43.3	43.3	43.3	62	31.2	3	6	248	0.00	29.999 
09:35	43.5	43.5	43.5	62	31.4	2	5	248	0.00	29.999 
09:40	43.5	43.5	43.5	61	31.0	3	9	248	0.00	29.999 
09:45	43.6	41.5	43.6	61	31.0	4	8	248	0.00	30.007 
09:50	43.8	43.8	43.8	61	31.2	3	7	248	0.00	30.007 
09:55	43.8	43.8	43.8	61	31.2	3	7	270	0.00	30.007 
10:00	43.9	43.9	43.9	61	31.3	3	7	270	0.00	30.018 
10:05	43.9	43.9	43.9	62	31.7	3	6	248	0.00	30.018 
10:10	43.9	41.8	43.9	62	31.7	4	11	248	0.00	30.018 
10:15	44.1	42.1	44.1	62	31.9	4	14	248	0.00	30.022 
10:20	44.3	44.3	44.3	62	32.1	3	6	270	0.00	30.022 
10:25	44.5	44.5	44.5	61	31.9	3	6	270	0.00	30.022 
10:30	44.5	42.5	44.5	61	31.9	4	12	248	0.00	30.031 
10:35	44.5	42.5	44.5	62	32.3	4	9	270	0.00	30.031 
10:40	44.6	42.6	44.6	61	32.0	4	7	270	0.00	30.031 
10:45	44.6	41.9	44.6	61	32.0	5	10	270	0.00	30.037 
10:50	44.6	42.6	44.6	61	32.0	4	6	270	0.00	30.037 
10:55	44.8	44.8	44.8	62	32.6	3	9	270	0.00	30.037 
11:00	45.2	43.3	45.2	61	32.6	4	10	270	0.00	30.042 
11:05	45.8	44.0	45.8	59	32.3	4	6	270	0.00	30.042 
11:10	45.7	43.9	45.7	59	32.2	4	9	248	0.00	30.042 
11:15	45.7	45.7	45.7	60	32.6	3	7	270	0.00	30.045 
11:20	45.5	42.9	45.5	59	32.0	5	10	270	0.00	30.045 
11:25	45.2	43.3	45.2	60	32.1	4	10	270	0.00	30.045 
11:30	45.2	45.2	45.2	61	32.6	3	6	270	0.00	30.054 
11:35	45.1	43.2	45.1	62	32.9	4	8	270	0.00	30.054 
11:40	44.9	44.9	44.9	62	32.7	3	9	248	0.00	30.054 
11:45	44.9	43.0	44.9	62	32.7	4	9	270	0.00	30.056 
11:50	45.2	45.2	45.2	62	33.0	3	5	248	0.00	30.056 
11:55	45.7	45.7	45.7	61	33.0	3	6	270	0.00	30.056 
12:00	45.8	44.0	45.8	60	32.7	4	12	270	0.00	30.063 
12:05	46.0	46.0	46.0	60	32.9	3	6	248	0.00	30.063 
12:10	46.1	46.1	46.1	60	33.0	3	6	248	0.00	30.063 
12:15	46.1	46.1	46.1	60	33.0	2	5	248	0.00	30.072 
12:20	45.8	44.0	45.8	60	32.7	4	9	270	0.00	30.072 
12:25	45.4	43.6	45.4	60	32.3	4	6	270	0.00	30.072 
12:30	45.2	43.3	45.2	62	33.0	4	7	248	0.00	30.085 
12:35	45.2	45.2	45.2	63	33.4	3	11	270	0.00	30.085 
12:40	45.5	45.5	45.5	63	33.6	3	7	248	0.00	30.085 
12:45	45.8	45.8	45.8	62	33.5	3	7	270	0.00	30.086 
12:50	46.1	46.1	46.1	62	33.8	3	6	248	0.00	30.086 
12:55	46.1	44.4	46.1	61	33.4	4	7	248	0.00	30.086 
13:00	46.0	46.0	46.0	62	33.7	3	5	270	0.00	30.086 
13:05	46.0	44.2	46.0	61	33.3	4	9	270	0.00	30.086 
13:10	45.7	45.7	45.7	62	33.4	3	7	270	0.00	30.086 
13:15	45.7	43.9	45.7	62	33.4	4	6	270	0.00	30.096 
13:20	45.7	43.9	45.7	61	33.0	4	7	270	0.00	30.096 
13:25	46.0	46.0	46.0	61	33.3	3	8	248	0.00	30.096 
13:30	46.2	46.2	46.2	60	33.1	3	9	292	0.00	30.090 
13:35	46.2	46.2	46.2	61	33.5	3	9	270	0.00	30.090 
13:40	46.1	46.1	46.1	61	33.4	3	6	270	0.00	30.090 
13:45	46.2	46.2	46.2	62	33.9	2	5	248	0.00	30.089 
13:50	46.7	46.7	46.7	61	34.0	3	6	225	0.00	30.089 
13:55	47.1	47.1	47.1	59	33.5	3	9	270	0.00	30.089 
14:00	47.4	45.9	47.4	58	33.4	4	7	248	0.00	30.088 
14:05	47.4	45.9	47.4	57	32.9	4	7	270	0.00	30.088 
14:10	47.4	47.4	47.4	57	32.9	2	6	270	0.00	30.088 
14:15	47.4	47.4	47.4	56	32.5	3	7	270	0.00	30.102 
14:20	47.0	45.4	47.0	56	32.1	4	10	270	0.00	30.102 
14:25	47.0	47.0	47.0	57	32.6	3	7	270	0.00	30.102 
14:30	46.8	46.8	46.8	58	32.8	3	6	270	0.00	30.101 
14:35	46.8	46.8	46.8	58	32.8	3	6	270	0.00	30.101 
14:40	47.0	47.0	47.0	57	32.6	3	10	248	0.00	30.101 
14:45	46.8	46.8	46.8	57	32.4	3	6	270	0.00	30.103 
14:50	46.7	46.7	46.7	57	32.3	3	6	270	0.00	30.103 
14:55	46.4	46.4	46.4	58	32.4	3	8	270	0.00	30.103 
15:00	46.1	44.4	46.1	58	32.2	4	9	270	0.00	30.106 
15:05	46.0	44.2	46.0	59	32.5	4	6	270	0.00	30.106 
15:10	46.1	46.1	46.1	59	32.6	2	6	270	0.00	30.106 
15:15	46.2	46.2	46.2	58	32.2	3	7	270	0.00	30.108 
15:20	46.2	44.5	46.2	58	32.2	4	10	270	0.00	30.108 
15:25	46.4	46.4	46.4	58	32.4	3	6	270	0.00	30.108 
15:30	46.4	46.4	46.4	57	32.0	2	7	270	0.00	30.108 
15:35	46.4	46.4	46.4	58	32.4	3	7	248	0.00	30.108 
15:40	46.4	46.4	46.4	58	32.4	2	5	248	0.00	30.108 
15:45	46.2	46.2	46.2	58	32.2	3	6	270	0.00	30.110 
15:50	46.1	44.4	46.1	58	32.2	4	6	248	0.00	30.110 
15:55	46.0	44.2	46.0	58	32.1	4	9	270	0.00	30.110 
16:00	46.0	44.2	46.0	58	32.1	4	7	270	0.00	30.118 
16:05	46.0	44.2	46.0	58	32.1	4	7	270	0.00	30.118 
16:10	46.0	46.0	46.0	58	32.1	2	4	270	0.00	30.118 
16:15	46.1	46.1	46.1	58	32.2	2	5	270	0.00	30.125 
16:20	46.0	44.2	46.0	58	32.1	4	7	270	0.00	30.125 
16:25	45.8	45.8	45.8	58	31.9	3	6	270	0.00	30.125 
16:30	45.7	43.9	45.7	58	31.8	4	10	270	0.00	30.127 
16:35	45.7	45.7	45.7	58	31.8	3	6	270	0.00	30.127 
16:40	45.7	45.7	45.7	58	31.8	3	7	270	0.00	30.127 
16:45	45.8	45.8	45.8	59	32.3	3	5	248	0.00	30.130 
16:50	45.7	43.9	45.7	59	32.2	4	7	270	0.00	30.130 
16:55	45.7	45.7	45.7	59	32.2	3	6	270	0.00	30.130 
17:00	45.5	45.5	45.5	59	32.0	3	6	270	0.00	30.140 
17:05	45.4	43.6	45.4	59	31.9	4	7	270	0.00	30.140 
17:10	45.2	43.3	45.2	60	32.1	4	7	270	0.00	30.140 
17:15	45.2	45.2	45.2	60	32.1	3	6	270	0.00	30.151 
17:20	45.1	45.1	45.1	60	32.1	3	6	270	0.00	30.151 
17:25	45.2	45.2	45.2	60	32.1	2	6	270	0.00	30.151 
17:30	45.1	43.2	45.1	60	32.1	4	9	270	0.00	30.155 
17:35	45.1	45.1	45.1	59	31.6	3	6	270	0.00	30.155 
17:40	45.1	45.1	45.1	60	32.1	2	6	270	0.00	30.155 
17:45	45.1	45.1	45.1	60	32.1	3	9	270	0.00	30.157 
17:50	44.8	44.8	44.8	61	32.2	3	9	270	0.00	30.157 
17:55	44.9	43.0	44.9	60	31.9	4	7	270	0.00	30.157 
18:00	44.9	44.9	44.9	60	31.9	3	7	270	0.00	30.160 
18:05	44.8	42.9	44.8	61	32.2	4	7	270	0.00	30.160 
18:10	44.6	44.6	44.6	61	32.0	3	7	270	0.00	30.160 
18:15	44.6	44.6	44.6	60	31.6	3	7	270	0.00	30.166 
18:20	44.6	44.6	44.6	61	32.0	3	6	270	0.00	30.166 
18:25	44.6	44.6	44.6	61	32.0	2	6	248	0.00	30.166 
18:30	44.6	44.6	44.6	60	31.6	2	6	270	0.00	30.171 
18:35	44.6	44.6	44.6	60	31.6	1	4	338	0.00	30.171 
18:40	44.6	44.6	44.6	60	31.6	1	4	292	0.00	30.171 
18:45	44.6	44.6	44.6	60	31.6	2	5	270	0.00	30.174 
18:50	44.6	44.6	44.6	60	31.6	2	4	270	0.00	30.174 
18:55	44.6	44.6	44.6	60	31.6	3	6	270	0.00	30.174 
19:00	44.6	44.6	44.6	60	31.6	3	6	248	0.00	30.176 
19:05	44.6	44.6	44.6	61	32.0	3	7	270	0.00	30.176 
19:10	44.5	42.5	44.5	62	32.3	4	7	270	0.00	30.176 
19:15	44.3	44.3	44.3	62	32.1	3	5	270	0.00	30.183 
19:20	44.3	44.3	44.3	62	32.1	3	5	292	0.00	30.183 
19:25	44.2	44.2	44.2	62	32.0	3	6	248	0.00	30.183 
19:30	44.2	44.2	44.2	62	32.0	3	7	248	0.00	30.190 
19:35	44.2	44.2	44.2	62	32.0	2	4	292	0.00	30.190 
19:40	44.2	44.2	44.2	62	32.0	3	6	270	0.00	30.190 
19:45	44.2	44.2	44.2	62	32.0	3	7	315	0.00	30.194 
19:50	44.2	44.2	44.2	62	32.0	3	6	270	0.00	30.194 
19:55	44.2	44.2	44.2	62	32.0	3	5	248	0.00	30.194 
20:00	44.2	44.2	44.2	62	32.0	2	7	270	0.00	30.204 
20:05	44.2	44.2	44.2	62	32.0	2	7	338	0.00	30.204 
20:10	44.2	44.2	44.2	62	32.0	2	5	292	0.00	30.204 
20:15	44.1	44.1	44.1	62	31.9	2	6	315	0.00	30.207 
20:20	44.2	44.2	44.2	62	32.0	2	6	270	0.00	30.207 
20:25	44.2	44.2	44.2	62	32.0	1	4	292	0.00	30.207 
20:30	44.2	44.2	44.2	62	32.0	2	4	270	0.00	30.208 
20:35	44.2	44.2	44.2	62	32.0	2	4	270	0.00	30.208 
20:40	44.2	44.2	44.2	62	32.0	1	3	270	0.00	30.208 
20:45	44.2	44.2	44.2	62	32.0	3	5	292	0.00	30.212 
20:50	44.2	44.2	44.2	62	32.0	2	5	270	0.00	30.212 
20:55	44.2	44.2	44.2	62	32.0	1	4	270	0.00	30.212 
21:00	44.2	44.2	44.2	62	32.0	3	6	270	0.00	30.217 
21:05	44.2	44.2	44.2	62	32.0	2	4	270	0.00	30.217 
21:10	44.2	44.2	44.2	62	32.0	1	3	270	0.00	30.217 
21:15	44.2	44.2	44.2	62	32.0	2	3	225	0.00	30.220 
21:20	44.2	44.2	44.2	62	32.0	2	4	315	0.00	30.220 
21:25	44.2	44.2	44.2	62	32.0	1	5	315	0.00	30.220 
21:30	44.2	44.2	44.2	62	32.0	2	5	270	0.00	30.222 
21:35	44.2	44.2	44.2	62	32.0	1	4	292	0.00	30.222 
21:40	44.1	44.1	44.1	62	31.9	3	8	270	0.00	30.222 
21:45	44.1	44.1	44.1	62	31.9	3	6	270	0.00	30.219 
21:50	44.1	44.1	44.1	62	31.9	2	6	270	0.00	30.219 
21:55	43.9	43.9	43.9	63	32.1	2	4	270	0.00	30.219 
22:00	43.8	43.8	43.8	63	32.0	2	4	270	0.00	30.221 
22:05	43.8	43.8	43.8	64	32.4	2	6	270	0.00	30.221 
22:10	43.5	43.5	43.5	65	32.5	2	5	315	0.00	30.221 
22:15	43.5	43.5	43.5	65	32.5	2	5	270	0.00	30.225 
22:20	43.3	41.1	43.3	66	32.7	4	8	270	0.00	30.225 
22:25	43.1	43.1	43.1	67	32.9	3	7	270	0.00	30.225 
22:30	42.9	42.9	42.9	68	33.1	2	6	270	0.00	30.227 
22:35	42.9	42.9	42.9	68	33.1	1	3	270	0.00	30.227 
22:40	42.9	42.9	42.9	68	33.1	2	5	248	0.00	30.227 
22:45	42.9	42.9	42.9	68	33.1	2	5	248	0.00	30.226 
22:50	42.9	42.9	42.9	67	32.7	2	4	248	0.00	30.226 
22:55	42.9	42.9	42.9	68	33.1	1	4	270	0.00	30.226 
23:00	42.9	42.9	42.9	68	33.1	1	3	248	0.00	30.231 
23:05	42.9	42.9	42.9	68	33.1	1	4	248	0.00	30.231 
23:10	42.9	42.9	42.9	67	32.7	1	4	248	0.00	30.231 
23:15	42.9	42.9	42.9	67	32.7	1	3	248	0.00	30.238 
23:20	43.1	43.1	43.1	66	32.5	1	3	248	0.00	30.238 
23:25	43.1	43.1	43.1	65	32.1	2	4	248	0.00	30.238 
23:30	43.2	43.2	43.2	65	32.2	1	5	248	0.00	30.240 
23:35	43.2	43.2	43.2	64	31.9	2	4	248	0.00	30.240 
23:40	43.2	43.2	43.2	64	31.9	1	3	270	0.00	30.240 
23:45	43.2	43.2	43.2	65	32.2	1	4	225	0.00	30.246 
23:50	43.2	43.2	43.2	65	32.2	2	6	248	0.00	30.246 
23:55	43.2	43.2	43.2	65	32.2	2	4	270	0.00	30.246 

CoCoRaHS
IN-AL-39
A2 Web Hosting
Creative Commons License
GoDaddy
search engine by freefind advanced

loaded 2018-11-15 03:16:00 • last modified 2010-11-18 10:43:29
Privacy PolicyDisclaimer
• wx.awcolley.com is powered by PmWiki v.2002016 •
• all content (unless otherwise noted) © 2018 A W Colley